sensor_id;sensor_type;location;lat;lon;timestamp;temperature;humidity
35603;DHT22;21725;50.836;4.368;2023-01-25T00:02:39;4.30;99.90
35603;DHT22;21725;50.836;4.368;2023-01-25T00:05:40;4.50;99.90
35603;DHT22;21725;50.836;4.368;2023-01-25T00:08:47;4.60;99.90
35603;DHT22;21725;50.836;4.368;2023-01-25T00:11:48;4.20;99.90
35603;DHT22;21725;50.836;4.368;2023-01-25T00:14:52;4.80;99.90
35603;DHT22;21725;50.836;4.368;2023-01-25T00:17:53;4.60;99.90
35603;DHT22;21725;50.836;4.368;2023-01-25T00:20:56;3.50;99.90
35603;DHT22;21725;50.836;4.368;2023-01-25T00:24:00;3.90;99.90
35603;DHT22;21725;50.836;4.368;2023-01-25T00:27:03;3.80;99.90
35603;DHT22;21725;50.836;4.368;2023-01-25T00:30:04;4.00;99.90
35603;DHT22;21725;50.836;4.368;2023-01-25T00:39:38;4.10;99.90
35603;DHT22;21725;50.836;4.368;2023-01-25T00:42:39;2.60;99.90
35603;DHT22;21725;50.836;4.368;2023-01-25T00:45:40;4.20;99.90
35603;DHT22;21725;50.836;4.368;2023-01-25T00:48:41;3.90;99.90
35603;DHT22;21725;50.836;4.368;2023-01-25T00:51:42;3.70;99.90
35603;DHT22;21725;50.836;4.368;2023-01-25T00:54:42;3.80;99.90
35603;DHT22;21725;50.836;4.368;2023-01-25T00:57:46;4.20;99.90
35603;DHT22;21725;50.836;4.368;2023-01-25T01:00:55;4.20;99.90
35603;DHT22;21725;50.836;4.368;2023-01-25T01:03:58;4.20;99.90
35603;DHT22;21725;50.836;4.368;2023-01-25T01:07:01;4.30;99.90
35603;DHT22;21725;50.836;4.368;2023-01-25T01:10:05;4.50;99.90
35603;DHT22;21725;50.836;4.368;2023-01-25T01:16:11;3.80;99.90
35603;DHT22;21725;50.836;4.368;2023-01-25T01:19:15;3.00;99.90
35603;DHT22;21725;50.836;4.368;2023-01-25T01:22:18;4.00;99.90
35603;DHT22;21725;50.836;4.368;2023-01-25T01:25:18;4.00;99.90
35603;DHT22;21725;50.836;4.368;2023-01-25T01:28:19;4.20;99.90
35603;DHT22;21725;50.836;4.368;2023-01-25T01:31:23;3.90;99.90
35603;DHT22;21725;50.836;4.368;2023-01-25T01:34:26;3.70;99.90
35603;DHT22;21725;50.836;4.368;2023-01-25T01:37:29;3.70;99.90
35603;DHT22;21725;50.836;4.368;2023-01-25T01:40:32;3.80;99.90
35603;DHT22;21725;50.836;4.368;2023-01-25T01:43:33;4.00;99.90
35603;DHT22;21725;50.836;4.368;2023-01-25T01:46:37;4.00;99.90
35603;DHT22;21725;50.836;4.368;2023-01-25T01:49:38;4.00;99.90
35603;DHT22;21725;50.836;4.368;2023-01-25T01:52:41;4.10;99.90
35603;DHT22;21725;50.836;4.368;2023-01-25T01:55:46;4.20;99.90
35603;DHT22;21725;50.836;4.368;2023-01-25T01:58:54;4.30;99.90
35603;DHT22;21725;50.836;4.368;2023-01-25T02:01:58;4.40;99.90
35603;DHT22;21725;50.836;4.368;2023-01-25T02:05:00;4.60;99.90
35603;DHT22;21725;50.836;4.368;2023-01-25T02:08:05;4.70;99.90
35603;DHT22;21725;50.836;4.368;2023-01-25T02:11:08;4.50;99.90
35603;DHT22;21725;50.836;4.368;2023-01-25T02:14:09;4.40;99.90
35603;DHT22;21725;50.836;4.368;2023-01-25T02:17:11;4.50;99.90
35603;DHT22;21725;50.836;4.368;2023-01-25T02:23:17;4.10;99.90
35603;DHT22;21725;50.836;4.368;2023-01-25T02:26:21;3.90;99.90
35603;DHT22;21725;50.836;4.368;2023-01-25T02:29:31;4.00;99.90
35603;DHT22;21725;50.836;4.368;2023-01-25T02:32:32;4.00;99.90
35603;DHT22;21725;50.836;4.368;2023-01-25T02:35:42;4.00;99.90
35603;DHT22;21725;50.836;4.368;2023-01-25T02:39:02;4.00;99.90
35603;DHT22;21725;50.836;4.368;2023-01-25T02:42:03;4.20;99.90
35603;DHT22;21725;50.836;4.368;2023-01-25T02:45:15;4.20;99.90
35603;DHT22;21725;50.836;4.368;2023-01-25T02:48:16;4.30;99.90
35603;DHT22;21725;50.836;4.368;2023-01-25T02:51:16;4.40;99.90
35603;DHT22;21725;50.836;4.368;2023-01-25T02:54:18;4.50;99.90
35603;DHT22;21725;50.836;4.368;2023-01-25T02:57:22;4.60;99.90
35603;DHT22;21725;50.836;4.368;2023-01-25T03:00:23;4.70;99.90
35603;DHT22;21725;50.836;4.368;2023-01-25T03:03:24;4.80;99.90
35603;DHT22;21725;50.836;4.368;2023-01-25T03:06:25;4.50;99.90
35603;DHT22;21725;50.836;4.368;2023-01-25T03:09:25;4.30;99.90
35603;DHT22;21725;50.836;4.368;2023-01-25T03:12:26;4.40;99.90
35603;DHT22;21725;50.836;4.368;2023-01-25T03:15:27;4.40;99.90
35603;DHT22;21725;50.836;4.368;2023-01-25T03:18:31;4.60;99.90
35603;DHT22;21725;50.836;4.368;2023-01-25T03:21:31;4.30;99.90
35603;DHT22;21725;50.836;4.368;2023-01-25T03:24:34;4.20;99.90
35603;DHT22;21725;50.836;4.368;2023-01-25T03:27:37;3.50;99.90
35603;DHT22;21725;50.836;4.368;2023-01-25T03:30:38;4.10;99.90
35603;DHT22;21725;50.836;4.368;2023-01-25T03:33:49;4.20;99.90
35603;DHT22;21725;50.836;4.368;2023-01-25T03:36:55;4.30;99.90
35603;DHT22;21725;50.836;4.368;2023-01-25T03:39:58;4.50;99.90
35603;DHT22;21725;50.836;4.368;2023-01-25T03:43:02;4.50;99.90
35603;DHT22;21725;50.836;4.368;2023-01-25T03:46:03;4.50;99.90
35603;DHT22;21725;50.836;4.368;2023-01-25T03:49:04;4.40;99.90
35603;DHT22;21725;50.836;4.368;2023-01-25T03:52:05;4.40;99.90
35603;DHT22;21725;50.836;4.368;2023-01-25T03:55:11;4.40;99.90
35603;DHT22;21725;50.836;4.368;2023-01-25T03:58:14;4.40;99.90
35603;DHT22;21725;50.836;4.368;2023-01-25T04:01:15;4.50;99.90
35603;DHT22;21725;50.836;4.368;2023-01-25T04:04:15;4.60;99.90
35603;DHT22;21725;50.836;4.368;2023-01-25T04:07:16;4.60;99.90
35603;DHT22;21725;50.836;4.368;2023-01-25T04:10:22;4.50;99.90
35603;DHT22;21725;50.836;4.368;2023-01-25T04:13:26;4.60;99.90
35603;DHT22;21725;50.836;4.368;2023-01-25T04:16:27;4.60;99.90
35603;DHT22;21725;50.836;4.368;2023-01-25T04:19:30;4.70;99.90
35603;DHT22;21725;50.836;4.368;2023-01-25T04:22:31;4.80;99.90
35603;DHT22;21725;50.836;4.368;2023-01-25T04:25:32;4.70;99.90
35603;DHT22;21725;50.836;4.368;2023-01-25T04:28:34;4.70;99.90
35603;DHT22;21725;50.836;4.368;2023-01-25T04:31:35;4.60;99.90
35603;DHT22;21725;50.836;4.368;2023-01-25T04:34:35;4.60;99.90
35603;DHT22;21725;50.836;4.368;2023-01-25T04:37:36;4.40;99.90
35603;DHT22;21725;50.836;4.368;2023-01-25T04:40:40;4.30;99.90
35603;DHT22;21725;50.836;4.368;2023-01-25T04:43:41;4.10;99.90
35603;DHT22;21725;50.836;4.368;2023-01-25T04:46:42;4.00;99.90
35603;DHT22;21725;50.836;4.368;2023-01-25T04:49:49;4.20;99.90
35603;DHT22;21725;50.836;4.368;2023-01-25T04:52:50;4.10;99.90
35603;DHT22;21725;50.836;4.368;2023-01-25T04:55:56;4.10;99.90
35603;DHT22;21725;50.836;4.368;2023-01-25T04:58:57;4.20;99.90
35603;DHT22;21725;50.836;4.368;2023-01-25T05:35:14;2.80;99.90
35603;DHT22;21725;50.836;4.368;2023-01-25T05:38:15;3.60;99.90
35603;DHT22;21725;50.836;4.368;2023-01-25T05:41:15;3.70;99.90
35603;DHT22;21725;50.836;4.368;2023-01-25T05:44:16;3.80;99.90
35603;DHT22;21725;50.836;4.368;2023-01-25T05:47:17;3.40;99.90
35603;DHT22;21725;50.836;4.368;2023-01-25T05:50:26;3.80;99.90
35603;DHT22;21725;50.836;4.368;2023-01-25T05:53:30;3.80;99.90
35603;DHT22;21725;50.836;4.368;2023-01-25T05:56:33;3.70;99.90
35603;DHT22;21725;50.836;4.368;2023-01-25T05:59:34;3.70;99.90
35603;DHT22;21725;50.836;4.368;2023-01-25T06:02:35;4.10;99.90
35603;DHT22;21725;50.836;4.368;2023-01-25T06:05:36;3.80;99.90
35603;DHT22;21725;50.836;4.368;2023-01-25T06:08:37;3.90;99.90
35603;DHT22;21725;50.836;4.368;2023-01-25T06:11:38;4.00;99.90
35603;DHT22;21725;50.836;4.368;2023-01-25T06:14:38;4.00;99.90
35603;DHT22;21725;50.836;4.368;2023-01-25T06:17:39;4.10;99.90
35603;DHT22;21725;50.836;4.368;2023-01-25T06:20:40;4.10;99.90
35603;DHT22;21725;50.836;4.368;2023-01-25T06:23:41;4.20;99.90
35603;DHT22;21725;50.836;4.368;2023-01-25T06:26:41;4.20;99.90
35603;DHT22;21725;50.836;4.368;2023-01-25T06:29:42;4.20;99.90
35603;DHT22;21725;50.836;4.368;2023-01-25T06:32:43;3.90;99.90
35603;DHT22;21725;50.836;4.368;2023-01-25T06:35:44;3.70;99.90
35603;DHT22;21725;50.836;4.368;2023-01-25T06:38:50;3.50;99.90
35603;DHT22;21725;50.836;4.368;2023-01-25T06:41:51;3.50;99.90
35603;DHT22;21725;50.836;4.368;2023-01-25T06:44:58;3.70;99.90
35603;DHT22;21725;50.836;4.368;2023-01-25T06:47:58;3.20;99.90
35603;DHT22;21725;50.836;4.368;2023-01-25T06:51:17;3.70;99.90
35603;DHT22;21725;50.836;4.368;2023-01-25T06:54:18;3.90;99.90
35603;DHT22;21725;50.836;4.368;2023-01-25T06:57:21;4.00;99.90
35603;DHT22;21725;50.836;4.368;2023-01-25T07:00:25;3.90;99.90
35603;DHT22;21725;50.836;4.368;2023-01-25T07:03:28;3.80;99.90
35603;DHT22;21725;50.836;4.368;2023-01-25T07:06:31;3.90;99.90
35603;DHT22;21725;50.836;4.368;2023-01-25T07:09:34;4.00;99.90
35603;DHT22;21725;50.836;4.368;2023-01-25T07:12:37;4.00;99.90
35603;DHT22;21725;50.836;4.368;2023-01-25T07:15:40;4.20;99.90
35603;DHT22;21725;50.836;4.368;2023-01-25T07:18:42;4.20;99.90
35603;DHT22;21725;50.836;4.368;2023-01-25T07:21:42;3.90;99.90
35603;DHT22;21725;50.836;4.368;2023-01-25T07:24:46;4.30;99.90
35603;DHT22;21725;50.836;4.368;2023-01-25T07:27:50;4.20;99.90
35603;DHT22;21725;50.836;4.368;2023-01-25T07:30:50;4.20;99.90
35603;DHT22;21725;50.836;4.368;2023-01-25T07:33:53;4.30;99.90
35603;DHT22;21725;50.836;4.368;2023-01-25T07:37:02;4.30;99.90
35603;DHT22;21725;50.836;4.368;2023-01-25T07:40:03;4.30;99.90
35603;DHT22;21725;50.836;4.368;2023-01-25T07:43:04;4.30;99.90
35603;DHT22;21725;50.836;4.368;2023-01-25T07:46:10;4.30;99.90
35603;DHT22;21725;50.836;4.368;2023-01-25T07:49:15;4.30;99.90
35603;DHT22;21725;50.836;4.368;2023-01-25T07:52:19;4.30;99.90
35603;DHT22;21725;50.836;4.368;2023-01-25T07:55:24;4.40;99.90
35603;DHT22;21725;50.836;4.368;2023-01-25T07:58:25;4.30;99.90
35603;DHT22;21725;50.836;4.368;2023-01-25T08:01:31;4.40;99.90
35603;DHT22;21725;50.836;4.368;2023-01-25T08:04:43;4.50;99.90
35603;DHT22;21725;50.836;4.368;2023-01-25T08:07:48;4.60;99.90
35603;DHT22;21725;50.836;4.368;2023-01-25T08:10:53;4.60;99.90
35603;DHT22;21725;50.836;4.368;2023-01-25T08:13:59;4.50;99.90
35603;DHT22;21725;50.836;4.368;2023-01-25T08:17:09;4.50;99.90
35603;DHT22;21725;50.836;4.368;2023-01-25T08:20:12;4.60;99.90
35603;DHT22;21725;50.836;4.368;2023-01-25T08:27:04;4.60;99.90
35603;DHT22;21725;50.836;4.368;2023-01-25T08:30:30;4.70;99.90
35603;DHT22;21725;50.836;4.368;2023-01-25T08:33:39;4.80;99.90
35603;DHT22;21725;50.836;4.368;2023-01-25T08:36:46;4.70;99.90
35603;DHT22;21725;50.836;4.368;2023-01-25T08:39:47;4.70;99.90
35603;DHT22;21725;50.836;4.368;2023-01-25T08:42:47;4.50;99.90
35603;DHT22;21725;50.836;4.368;2023-01-25T08:45:59;4.40;99.90
35603;DHT22;21725;50.836;4.368;2023-01-25T08:49:05;4.50;99.90
35603;DHT22;21725;50.836;4.368;2023-01-25T08:52:07;4.50;99.90
35603;DHT22;21725;50.836;4.368;2023-01-25T08:55:08;4.50;99.90
35603;DHT22;21725;50.836;4.368;2023-01-25T08:58:13;4.70;99.90
35603;DHT22;21725;50.836;4.368;2023-01-25T09:01:19;4.70;99.90
35603;DHT22;21725;50.836;4.368;2023-01-25T09:04:20;4.60;99.90
35603;DHT22;21725;50.836;4.368;2023-01-25T09:07:20;4.50;99.90
35603;DHT22;21725;50.836;4.368;2023-01-25T09:10:24;4.50;99.90
35603;DHT22;21725;50.836;4.368;2023-01-25T09:13:24;4.50;99.90
35603;DHT22;21725;50.836;4.368;2023-01-25T09:16:25;4.50;99.90
35603;DHT22;21725;50.836;4.368;2023-01-25T09:19:36;4.60;99.90
35603;DHT22;21725;50.836;4.368;2023-01-25T09:22:37;4.40;99.90
35603;DHT22;21725;50.836;4.368;2023-01-25T09:25:40;4.50;99.90
35603;DHT22;21725;50.836;4.368;2023-01-25T09:28:50;4.50;99.90
35603;DHT22;21725;50.836;4.368;2023-01-25T09:31:53;4.40;99.90
35603;DHT22;21725;50.836;4.368;2023-01-25T09:34:57;4.40;99.90
35603;DHT22;21725;50.836;4.368;2023-01-25T09:38:08;3.60;99.90
35603;DHT22;21725;50.836;4.368;2023-01-25T09:48:30;4.40;99.90
35603;DHT22;21725;50.836;4.368;2023-01-25T09:55:15;3.80;99.90
35603;DHT22;21725;50.836;4.368;2023-01-25T09:58:21;3.70;99.90
35603;DHT22;21725;50.836;4.368;2023-01-25T10:04:46;4.20;99.90
35603;DHT22;21725;50.836;4.368;2023-01-25T10:07:59;4.50;99.90
35603;DHT22;21725;50.836;4.368;2023-01-25T10:11:20;4.50;99.90
35603;DHT22;21725;50.836;4.368;2023-01-25T10:14:23;4.50;99.90
35603;DHT22;21725;50.836;4.368;2023-01-25T10:17:41;4.70;99.90
35603;DHT22;21725;50.836;4.368;2023-01-25T10:26:56;4.50;99.90
35603;DHT22;21725;50.836;4.368;2023-01-25T10:30:02;4.60;99.90
35603;DHT22;21725;50.836;4.368;2023-01-25T10:33:20;4.80;99.80
35603;DHT22;21725;50.836;4.368;2023-01-25T10:36:24;4.50;99.90
35603;DHT22;21725;50.836;4.368;2023-01-25T10:39:38;4.40;99.90
35603;DHT22;21725;50.836;4.368;2023-01-25T10:42:50;4.30;99.90
35603;DHT22;21725;50.836;4.368;2023-01-25T10:45:55;4.30;99.90
35603;DHT22;21725;50.836;4.368;2023-01-25T10:48:55;4.10;99.90
35603;DHT22;21725;50.836;4.368;2023-01-25T10:52:15;4.40;99.90
35603;DHT22;21725;50.836;4.368;2023-01-25T10:55:20;4.40;99.90
35603;DHT22;21725;50.836;4.368;2023-01-25T11:40:27;4.80;99.90
35603;DHT22;21725;50.836;4.368;2023-01-25T11:43:56;4.60;99.90
35603;DHT22;21725;50.836;4.368;2023-01-25T11:47:35;4.50;99.90
35603;DHT22;21725;50.836;4.368;2023-01-25T11:51:07;4.60;99.90
35603;DHT22;21725;50.836;4.368;2023-01-25T12:25:29;5.50;99.00
35603;DHT22;21725;50.836;4.368;2023-01-25T12:31:42;5.30;98.80
35603;DHT22;21725;50.836;4.368;2023-01-25T12:38:53;5.40;99.00
35603;DHT22;21725;50.836;4.368;2023-01-25T12:42:18;5.50;98.90
35603;DHT22;21725;50.836;4.368;2023-01-25T12:45:25;5.50;98.60
35603;DHT22;21725;50.836;4.368;2023-01-25T12:48:33;5.20;98.80
35603;DHT22;21725;50.836;4.368;2023-01-25T12:51:39;4.90;99.20
35603;DHT22;21725;50.836;4.368;2023-01-25T12:54:45;4.70;99.70
35603;DHT22;21725;50.836;4.368;2023-01-25T13:08:10;4.20;99.90
35603;DHT22;21725;50.836;4.368;2023-01-25T13:11:39;4.20;99.90
35603;DHT22;21725;50.836;4.368;2023-01-25T13:14:44;4.40;99.90
35603;DHT22;21725;50.836;4.368;2023-01-25T13:17:44;4.80;99.90
35603;DHT22;21725;50.836;4.368;2023-01-25T13:20:51;4.70;99.80
35603;DHT22;21725;50.836;4.368;2023-01-25T13:27:33;5.20;99.40
35603;DHT22;21725;50.836;4.368;2023-01-25T13:30:50;5.30;98.80
35603;DHT22;21725;50.836;4.368;2023-01-25T13:33:51;5.30;98.80
35603;DHT22;21725;50.836;4.368;2023-01-25T13:36:55;5.00;99.10
35603;DHT22;21725;50.836;4.368;2023-01-25T13:40:05;4.50;99.80
35603;DHT22;21725;50.836;4.368;2023-01-25T13:43:23;4.30;99.90
35603;DHT22;21725;50.836;4.368;2023-01-25T13:46:30;4.20;99.90
35603;DHT22;21725;50.836;4.368;2023-01-25T13:49:40;4.20;99.90
35603;DHT22;21725;50.836;4.368;2023-01-25T13:53:02;4.20;99.90
35603;DHT22;21725;50.836;4.368;2023-01-25T13:56:32;4.00;99.90
35603;DHT22;21725;50.836;4.368;2023-01-25T13:59:39;4.00;99.90
35603;DHT22;21725;50.836;4.368;2023-01-25T14:02:42;4.10;99.90
35603;DHT22;21725;50.836;4.368;2023-01-25T14:05:54;4.00;99.90
35603;DHT22;21725;50.836;4.368;2023-01-25T14:09:05;3.70;99.90
35603;DHT22;21725;50.836;4.368;2023-01-25T14:12:12;3.80;99.90
35603;DHT22;21725;50.836;4.368;2023-01-25T14:21:31;4.20;99.90
35603;DHT22;21725;50.836;4.368;2023-01-25T14:24:31;4.10;99.90
35603;DHT22;21725;50.836;4.368;2023-01-25T14:27:43;3.80;99.90
35603;DHT22;21725;50.836;4.368;2023-01-25T14:30:55;4.00;99.90
35603;DHT22;21725;50.836;4.368;2023-01-25T14:34:28;4.10;99.90
35603;DHT22;21725;50.836;4.368;2023-01-25T14:37:49;3.90;99.90
35603;DHT22;21725;50.836;4.368;2023-01-25T14:40:55;3.60;99.90
35603;DHT22;21725;50.836;4.368;2023-01-25T14:44:04;3.60;99.90
35603;DHT22;21725;50.836;4.368;2023-01-25T14:47:31;3.50;99.90
35603;DHT22;21725;50.836;4.368;2023-01-25T14:50:35;3.50;99.90
35603;DHT22;21725;50.836;4.368;2023-01-25T14:53:43;3.50;99.90
35603;DHT22;21725;50.836;4.368;2023-01-25T14:57:02;3.40;99.90
35603;DHT22;21725;50.836;4.368;2023-01-25T15:03:13;3.30;99.90
35603;DHT22;21725;50.836;4.368;2023-01-25T15:06:23;3.10;99.90
35603;DHT22;21725;50.836;4.368;2023-01-25T15:09:58;3.30;99.90
35603;DHT22;21725;50.836;4.368;2023-01-25T15:16:15;3.70;99.90
35603;DHT22;21725;50.836;4.368;2023-01-25T15:19:27;3.70;99.90
35603;DHT22;21725;50.836;4.368;2023-01-25T15:22:29;3.50;99.90
35603;DHT22;21725;50.836;4.368;2023-01-25T15:25:30;3.40;99.90
35603;DHT22;21725;50.836;4.368;2023-01-25T15:28:31;3.20;99.90
35603;DHT22;21725;50.836;4.368;2023-01-25T15:31:35;3.10;99.90
35603;DHT22;21725;50.836;4.368;2023-01-25T15:34:36;2.80;99.90
35603;DHT22;21725;50.836;4.368;2023-01-25T15:37:37;2.80;99.90
35603;DHT22;21725;50.836;4.368;2023-01-25T15:40:38;2.50;99.90
35603;DHT22;21725;50.836;4.368;2023-01-25T15:43:39;2.60;99.90
35603;DHT22;21725;50.836;4.368;2023-01-25T15:46:42;2.70;99.90
35603;DHT22;21725;50.836;4.368;2023-01-25T15:49:44;2.50;99.90
35603;DHT22;21725;50.836;4.368;2023-01-25T15:52:48;2.80;99.90
35603;DHT22;21725;50.836;4.368;2023-01-25T15:55:55;2.60;99.90
35603;DHT22;21725;50.836;4.368;2023-01-25T15:59:00;2.80;99.90
35603;DHT22;21725;50.836;4.368;2023-01-25T16:02:10;3.00;99.90
35603;DHT22;21725;50.836;4.368;2023-01-25T16:05:12;2.70;99.90
35603;DHT22;21725;50.836;4.368;2023-01-25T16:08:17;2.60;99.90
35603;DHT22;21725;50.836;4.368;2023-01-25T16:11:18;2.50;99.90
35603;DHT22;21725;50.836;4.368;2023-01-25T16:14:19;2.50;99.90
35603;DHT22;21725;50.836;4.368;2023-01-25T16:17:23;2.60;99.90
35603;DHT22;21725;50.836;4.368;2023-01-25T16:20:24;2.70;99.90
35603;DHT22;21725;50.836;4.368;2023-01-25T16:23:24;2.40;99.90
35603;DHT22;21725;50.836;4.368;2023-01-25T16:26:26;2.00;99.90
35603;DHT22;21725;50.836;4.368;2023-01-25T16:29:28;2.10;99.90
35603;DHT22;21725;50.836;4.368;2023-01-25T16:32:32;2.10;99.90
35603;DHT22;21725;50.836;4.368;2023-01-25T16:35:33;2.10;99.90
35603;DHT22;21725;50.836;4.368;2023-01-25T16:38:34;2.20;99.90
35603;DHT22;21725;50.836;4.368;2023-01-25T16:41:34;2.30;99.90
35603;DHT22;21725;50.836;4.368;2023-01-25T16:44:36;2.50;99.90
35603;DHT22;21725;50.836;4.368;2023-01-25T16:47:37;2.50;99.90
35603;DHT22;21725;50.836;4.368;2023-01-25T16:50:37;2.50;99.90
35603;DHT22;21725;50.836;4.368;2023-01-25T16:53:38;2.50;99.90
35603;DHT22;21725;50.836;4.368;2023-01-25T16:56:41;2.40;99.90
35603;DHT22;21725;50.836;4.368;2023-01-25T16:59:49;2.20;99.90
35603;DHT22;21725;50.836;4.368;2023-01-25T18:02:24;2.70;99.90
35603;DHT22;21725;50.836;4.368;2023-01-25T18:05:28;2.90;99.90
35603;DHT22;21725;50.836;4.368;2023-01-25T18:08:32;3.20;99.90
35603;DHT22;21725;50.836;4.368;2023-01-25T18:11:34;3.40;99.90
35603;DHT22;21725;50.836;4.368;2023-01-25T18:14:35;3.60;99.90
35603;DHT22;21725;50.836;4.368;2023-01-25T18:17:36;3.50;99.90
35603;DHT22;21725;50.836;4.368;2023-01-25T18:20:38;3.70;99.90
35603;DHT22;21725;50.836;4.368;2023-01-25T18:23:40;3.50;99.90
35603;DHT22;21725;50.836;4.368;2023-01-25T18:26:41;3.40;99.90
35603;DHT22;21725;50.836;4.368;2023-01-25T18:32:51;3.60;99.90
35603;DHT22;21725;50.836;4.368;2023-01-25T18:35:53;3.70;99.90
35603;DHT22;21725;50.836;4.368;2023-01-25T18:38:56;3.50;99.90
35603;DHT22;21725;50.836;4.368;2023-01-25T18:41:59;3.50;99.90
35603;DHT22;21725;50.836;4.368;2023-01-25T18:44:59;3.60;99.90
35603;DHT22;21725;50.836;4.368;2023-01-25T18:48:00;3.60;99.90
35603;DHT22;21725;50.836;4.368;2023-01-25T18:51:06;3.50;99.90
35603;DHT22;21725;50.836;4.368;2023-01-25T18:54:07;3.50;99.90
35603;DHT22;21725;50.836;4.368;2023-01-25T18:57:08;3.40;99.90
35603;DHT22;21725;50.836;4.368;2023-01-25T19:00:11;3.30;99.90
35603;DHT22;21725;50.836;4.368;2023-01-25T19:03:14;3.30;99.90
35603;DHT22;21725;50.836;4.368;2023-01-25T19:06:16;3.30;99.90
35603;DHT22;21725;50.836;4.368;2023-01-25T19:09:16;3.30;99.90
35603;DHT22;21725;50.836;4.368;2023-01-25T19:12:17;3.50;99.90
35603;DHT22;21725;50.836;4.368;2023-01-25T19:15:18;3.60;99.90
35603;DHT22;21725;50.836;4.368;2023-01-25T19:18:19;3.80;99.90
35603;DHT22;21725;50.836;4.368;2023-01-25T19:21:24;3.80;99.90
35603;DHT22;21725;50.836;4.368;2023-01-25T19:24:26;3.90;99.90
35603;DHT22;21725;50.836;4.368;2023-01-25T19:27:26;3.80;99.90
35603;DHT22;21725;50.836;4.368;2023-01-25T19:30:28;3.80;99.90
35603;DHT22;21725;50.836;4.368;2023-01-25T19:33:32;3.60;99.90
35603;DHT22;21725;50.836;4.368;2023-01-25T19:36:35;3.30;99.90
35603;DHT22;21725;50.836;4.368;2023-01-25T19:39:36;3.30;99.90
35603;DHT22;21725;50.836;4.368;2023-01-25T19:42:37;3.50;99.90
35603;DHT22;21725;50.836;4.368;2023-01-25T19:45:37;3.70;99.90
35603;DHT22;21725;50.836;4.368;2023-01-25T19:48:39;3.80;99.90
35603;DHT22;21725;50.836;4.368;2023-01-25T19:51:41;3.80;99.90
35603;DHT22;21725;50.836;4.368;2023-01-25T19:54:45;3.80;99.90
35603;DHT22;21725;50.836;4.368;2023-01-25T19:57:46;3.80;99.90
35603;DHT22;21725;50.836;4.368;2023-01-25T20:00:47;3.80;99.90
35603;DHT22;21725;50.836;4.368;2023-01-25T20:03:48;3.80;99.90
35603;DHT22;21725;50.836;4.368;2023-01-25T20:06:49;3.80;99.90
35603;DHT22;21725;50.836;4.368;2023-01-25T20:09:50;3.70;99.90
35603;DHT22;21725;50.836;4.368;2023-01-25T20:12:51;3.60;99.90
35603;DHT22;21725;50.836;4.368;2023-01-25T20:15:52;3.60;99.90
35603;DHT22;21725;50.836;4.368;2023-01-25T20:18:54;3.70;99.90
35603;DHT22;21725;50.836;4.368;2023-01-25T20:21:55;3.70;99.90
35603;DHT22;21725;50.836;4.368;2023-01-25T20:24:56;3.80;99.90
35603;DHT22;21725;50.836;4.368;2023-01-25T20:27:57;3.60;99.90
35603;DHT22;21725;50.836;4.368;2023-01-25T20:30:57;3.40;99.90
35603;DHT22;21725;50.836;4.368;2023-01-25T20:34:09;3.20;99.90
35603;DHT22;21725;50.836;4.368;2023-01-25T20:37:11;3.20;99.90
35603;DHT22;21725;50.836;4.368;2023-01-25T20:40:12;3.30;99.90
35603;DHT22;21725;50.836;4.368;2023-01-25T20:43:12;3.30;99.90
35603;DHT22;21725;50.836;4.368;2023-01-25T20:46:13;3.30;99.90
35603;DHT22;21725;50.836;4.368;2023-01-25T20:49:16;3.50;99.90
35603;DHT22;21725;50.836;4.368;2023-01-25T20:52:17;3.70;99.90
35603;DHT22;21725;50.836;4.368;2023-01-25T20:55:18;4.20;99.90
35603;DHT22;21725;50.836;4.368;2023-01-25T20:58:19;3.80;99.90
35603;DHT22;21725;50.836;4.368;2023-01-25T21:01:21;3.70;99.90
35603;DHT22;21725;50.836;4.368;2023-01-25T21:04:22;3.80;99.90
35603;DHT22;21725;50.836;4.368;2023-01-25T21:07:22;3.70;99.90
35603;DHT22;21725;50.836;4.368;2023-01-25T21:10:23;3.60;99.90
35603;DHT22;21725;50.836;4.368;2023-01-25T21:13:25;3.60;99.90
35603;DHT22;21725;50.836;4.368;2023-01-25T21:16:26;3.70;99.90
35603;DHT22;21725;50.836;4.368;2023-01-25T21:19:30;3.80;99.90
35603;DHT22;21725;50.836;4.368;2023-01-25T21:22:31;3.80;99.90
35603;DHT22;21725;50.836;4.368;2023-01-25T21:25:31;3.70;99.90
35603;DHT22;21725;50.836;4.368;2023-01-25T21:28:33;3.70;99.90
35603;DHT22;21725;50.836;4.368;2023-01-25T21:31:38;3.60;99.90
35603;DHT22;21725;50.836;4.368;2023-01-25T21:34:41;3.60;99.90
35603;DHT22;21725;50.836;4.368;2023-01-25T21:37:42;3.50;99.90
35603;DHT22;21725;50.836;4.368;2023-01-25T21:40:45;3.50;99.90
35603;DHT22;21725;50.836;4.368;2023-01-25T21:43:50;3.50;99.90
35603;DHT22;21725;50.836;4.368;2023-01-25T21:47:10;3.70;99.90
35603;DHT22;21725;50.836;4.368;2023-01-25T21:50:11;3.80;99.90
35603;DHT22;21725;50.836;4.368;2023-01-25T21:53:30;3.80;99.90
35603;DHT22;21725;50.836;4.368;2023-01-25T21:56:30;3.70;99.90
35603;DHT22;21725;50.836;4.368;2023-01-25T21:59:31;3.60;99.90
35603;DHT22;21725;50.836;4.368;2023-01-25T22:02:32;3.60;99.90
35603;DHT22;21725;50.836;4.368;2023-01-25T22:05:33;3.60;99.90
35603;DHT22;21725;50.836;4.368;2023-01-25T22:08:33;3.50;99.90
35603;DHT22;21725;50.836;4.368;2023-01-25T22:11:35;3.50;99.90
35603;DHT22;21725;50.836;4.368;2023-01-25T22:14:36;3.60;99.90
35603;DHT22;21725;50.836;4.368;2023-01-25T22:17:36;3.70;99.90
35603;DHT22;21725;50.836;4.368;2023-01-25T22:20:37;3.70;99.90
35603;DHT22;21725;50.836;4.368;2023-01-25T22:23:38;3.80;99.90
35603;DHT22;21725;50.836;4.368;2023-01-25T22:29:45;3.40;99.90
35603;DHT22;21725;50.836;4.368;2023-01-25T22:32:46;3.30;99.90
35603;DHT22;21725;50.836;4.368;2023-01-25T22:35:49;3.30;99.90
35603;DHT22;21725;50.836;4.368;2023-01-25T22:38:50;3.40;99.90
35603;DHT22;21725;50.836;4.368;2023-01-25T22:41:51;3.30;99.90
35603;DHT22;21725;50.836;4.368;2023-01-25T22:44:52;3.60;99.90
35603;DHT22;21725;50.836;4.368;2023-01-25T22:47:53;3.60;99.90
35603;DHT22;21725;50.836;4.368;2023-01-25T22:51:02;3.60;99.90
35603;DHT22;21725;50.836;4.368;2023-01-25T22:54:03;3.70;99.90
35603;DHT22;21725;50.836;4.368;2023-01-25T22:57:04;3.80;99.90
35603;DHT22;21725;50.836;4.368;2023-01-25T23:00:08;3.90;99.90
35603;DHT22;21725;50.836;4.368;2023-01-25T23:34:52;3.30;99.90
35603;DHT22;21725;50.836;4.368;2023-01-25T23:38:10;3.20;99.90
35603;DHT22;21725;50.836;4.368;2023-01-25T23:41:15;3.20;99.90
35603;DHT22;21725;50.836;4.368;2023-01-25T23:44:35;3.50;99.90
35603;DHT22;21725;50.836;4.368;2023-01-25T23:47:47;3.50;99.90
35603;DHT22;21725;50.836;4.368;2023-01-25T23:50:51;3.10;99.90
35603;DHT22;21725;50.836;4.368;2023-01-25T23:54:04;3.50;99.90
35603;DHT22;21725;50.836;4.368;2023-01-25T23:57:17;3.70;99.90
